Humboldt, Nevada
Current Conditions -  °F | °C
As of 2:56 PM on Sunday 21 Dec 2014 (Local Time) from KWMC Reporting Station
Overcast Overcast  
Wind Chill: 53°   Ceiling: 4100
Heat Index: 53°   Visibility: 10mi
Dew Point: 43°   Wind: 3mph
Humidity: 69%   Direction: 200°SSW
Pressure: 30.11"   Gusts: NA
Location:  40.601°N, 117.984°W
Report Text: KWMC 212256Z AUTO 20003KT 10SM BKN041 OVC050 12/06 A3011 RMK AO2 SLP181 T01170061
Loading
Personal Weather Stations






























Interactive Weather Map New forecast layout! Learn more

10-Day Weather Forecast

Advertisements
Track Severe Weather on mobile